createdAt,value
2018-06-12T00:00:47.543Z,14.13
2018-06-12T00:03:15.976Z,13.20
2018-06-12T00:05:44.802Z,13.60
2018-06-12T00:08:13.652Z,13.60
2018-06-12T00:10:42.066Z,13.30
2018-06-12T00:13:10.858Z,13.47
2018-06-12T00:15:39.678Z,12.73
2018-06-12T00:18:08.414Z,12.47
2018-06-12T00:20:37.284Z,14.00
2018-06-12T00:23:05.692Z,13.40
2018-06-12T00:25:34.547Z,14.27
2018-06-12T00:28:03.024Z,14.07
2018-06-12T00:30:31.846Z,14.17
2018-06-12T00:33:00.595Z,13.60
2018-06-12T00:35:29.407Z,14.80
2018-06-12T00:37:57.780Z,14.20
2018-06-12T00:40:26.156Z,14.60
2018-06-12T00:42:54.608Z,15.30
2018-06-12T00:45:23.399Z,14.03
2018-06-12T00:47:51.787Z,14.47
2018-06-12T00:50:20.239Z,14.47
2018-06-12T00:52:49.013Z,14.17
2018-06-12T00:55:17.862Z,15.60
2018-06-12T00:57:46.277Z,15.30
2018-06-12T01:00:15.180Z,14.07
2018-06-12T01:02:44.142Z,14.67
2018-06-12T01:05:12.929Z,14.57
2018-06-12T01:07:41.737Z,14.07
2018-06-12T01:10:10.185Z,14.23
2018-06-12T01:12:38.627Z,14.20
2018-06-12T01:15:07.566Z,14.30
2018-06-12T01:17:36.038Z,14.53
2018-06-12T01:20:04.434Z,15.23
2018-06-12T01:22:33.240Z,15.07
2018-06-12T01:25:01.703Z,15.03
2018-06-12T01:27:30.155Z,15.87
2018-06-12T01:29:58.561Z,15.67
2018-06-12T01:32:27.325Z,15.70
2018-06-12T01:34:56.144Z,14.33
2018-06-12T01:37:24.952Z,15.47
2018-06-12T01:39:53.784Z,15.77
2018-06-12T01:42:22.174Z,16.43
2018-06-12T01:44:50.918Z,15.17
2018-06-12T01:47:19.319Z,15.93
2018-06-12T01:49:48.118Z,15.70
2018-06-12T01:52:16.981Z,15.43
2018-06-12T01:54:45.795Z,13.83
2018-06-12T01:57:14.759Z,15.67
2018-06-12T01:59:43.177Z,15.50
2018-06-12T02:02:12.030Z,13.97
2018-06-12T02:04:40.836Z,15.60
2018-06-12T02:07:09.619Z,15.40
2018-06-12T02:09:38.466Z,14.47
2018-06-12T02:12:07.240Z,13.60
2018-06-12T02:14:36.039Z,15.07
2018-06-12T02:17:04.878Z,15.63
2018-06-12T02:19:33.675Z,13.40
2018-06-12T02:22:02.503Z,15.23
2018-06-12T02:24:30.955Z,13.13
2018-06-12T02:26:59.684Z,13.00
2018-06-12T02:29:28.103Z,13.57
2018-06-12T02:31:56.873Z,12.47
2018-06-12T02:34:25.357Z,13.10
2018-06-12T02:36:53.769Z,11.93
2018-06-12T02:39:22.574Z,12.53
2018-06-12T02:41:51.352Z,12.27
2018-06-12T02:44:19.763Z,12.77
2018-06-12T02:46:48.563Z,12.87
2018-06-12T02:49:17.023Z,12.57
2018-06-12T02:51:45.852Z,12.37
2018-06-12T02:54:14.257Z,13.13
2018-06-12T02:56:42.684Z,12.67
2018-06-12T02:59:11.235Z,12.63
2018-06-12T03:01:39.735Z,11.90
2018-06-12T03:04:08.130Z,12.80
2018-06-12T03:06:36.517Z,12.87
2018-06-12T03:09:08.488Z,12.60
2018-06-12T03:11:37.447Z,11.87
2018-06-12T03:14:06.311Z,12.30
2018-06-12T03:16:35.129Z,12.37
2018-06-12T03:19:03.955Z,12.17
2018-06-12T03:21:32.330Z,13.13
2018-06-12T03:24:01.148Z,12.37
2018-06-12T03:26:29.563Z,11.50
2018-06-12T03:28:57.988Z,12.23
2018-06-12T03:31:26.789Z,13.07
2018-06-12T03:33:55.167Z,11.57
2018-06-12T03:36:23.650Z,13.13
2018-06-12T03:38:52.054Z,11.23
2018-06-12T03:41:20.855Z,12.07
2018-06-12T03:43:49.672Z,12.63
2018-06-12T03:46:18.235Z,12.27
2018-06-12T03:48:47.012Z,12.10
2018-06-12T03:51:15.743Z,12.13
2018-06-12T03:53:44.519Z,11.40
2018-06-12T03:56:13.276Z,11.27
2018-06-12T03:58:41.704Z,11.87
2018-06-12T04:01:10.118Z,11.90
2018-06-12T04:03:38.979Z,11.20
2018-06-12T04:06:07.339Z,12.10
2018-06-12T04:08:36.267Z,10.27
2018-06-12T04:11:05.083Z,10.67
2018-06-12T04:13:33.457Z,10.47
2018-06-12T04:16:02.237Z,9.50
2018-06-12T04:18:30.670Z,10.77
2018-06-12T04:20:59.039Z,9.87
2018-06-12T04:23:27.841Z,9.43
2018-06-12T04:25:56.629Z,8.87
2018-06-12T04:28:25.420Z,8.53
2018-06-12T04:30:53.868Z,9.80
2018-06-12T04:33:22.262Z,9.20
2018-06-12T04:35:51.083Z,8.33
2018-06-12T04:38:19.868Z,7.90
2018-06-12T04:40:48.310Z,8.03
2018-06-12T04:43:17.149Z,8.77
2018-06-12T04:45:45.561Z,8.00
2018-06-12T04:48:14.081Z,7.83
2018-06-12T04:50:42.451Z,8.30
2018-06-12T04:53:10.833Z,7.80
2018-06-12T04:55:40.019Z,8.17
2018-06-12T04:58:09.288Z,7.53
2018-06-12T05:00:37.689Z,8.53
2018-06-12T05:03:06.121Z,8.90
2018-06-12T05:05:34.568Z,9.57
2018-06-12T05:08:03.357Z,8.37
2018-06-12T05:10:32.188Z,9.33
2018-06-12T05:13:00.602Z,8.47
2018-06-12T05:15:28.972Z,8.03
2018-06-12T05:17:57.786Z,8.40
2018-06-12T05:20:26.563Z,7.67
2018-06-12T05:22:55.345Z,7.50
2018-06-12T05:25:24.131Z,7.33
2018-06-12T05:27:52.959Z,8.20
2018-06-12T05:57:26.886Z,3.77
2018-06-12T05:59:55.874Z,3.23
2018-06-12T06:02:24.695Z,4.30
2018-06-12T06:04:53.085Z,3.67
2018-06-12T06:07:21.896Z,4.00
2018-06-12T06:09:50.714Z,4.40
2018-06-12T06:12:20.085Z,3.80
2018-06-12T06:14:48.461Z,4.40
2018-06-12T06:17:16.870Z,4.00
2018-06-12T06:19:45.307Z,3.70
2018-06-12T06:22:14.118Z,3.77
2018-06-12T06:24:42.943Z,3.63
2018-06-12T06:27:11.746Z,4.13
2018-06-12T06:29:40.572Z,4.10
2018-06-12T06:32:08.960Z,3.40
2018-06-12T06:34:37.837Z,3.90
2018-06-12T06:59:17.177Z,4.10
2018-06-12T07:01:46.005Z,3.10
2018-06-12T07:04:14.810Z,3.73
2018-06-12T07:06:43.602Z,3.50
2018-06-12T07:09:12.046Z,3.60
2018-06-12T07:31:24.291Z,2.90
2018-06-12T07:33:53.078Z,3.17
2018-06-12T07:36:21.485Z,3.20
2018-06-12T07:38:50.325Z,2.83
2018-06-12T07:41:18.724Z,2.87
2018-06-12T07:43:47.490Z,3.40
2018-06-12T07:46:16.291Z,3.47
2018-06-12T07:48:44.718Z,3.13
2018-06-12T07:51:13.137Z,3.50
2018-06-12T07:53:41.555Z,3.60
2018-06-12T07:56:10.334Z,3.00
2018-06-12T07:58:39.114Z,3.10
2018-06-12T08:01:08.018Z,3.00
2018-06-12T08:03:36.877Z,2.80
2018-06-12T08:06:05.638Z,2.77
2018-06-12T08:08:34.464Z,2.97
2018-06-12T08:11:03.234Z,2.90
2018-06-12T08:13:32.173Z,3.00
2018-06-12T08:16:00.934Z,2.63
2018-06-12T08:18:29.727Z,1.97
2018-06-12T08:20:58.550Z,1.93
2018-06-12T08:23:27.355Z,2.57
2018-06-12T08:25:55.741Z,2.43
2018-06-12T08:28:24.684Z,2.53
2018-06-12T08:30:53.063Z,2.50
2018-06-12T08:33:21.848Z,2.60
2018-06-12T08:35:50.284Z,2.30
2018-06-12T08:38:19.145Z,2.30
2018-06-12T08:40:47.572Z,2.50
2018-06-12T08:43:15.987Z,3.17
2018-06-12T08:45:44.739Z,2.40
2018-06-12T08:48:13.137Z,2.80
2018-06-12T08:53:38.607Z,3.30
2018-06-12T08:56:07.466Z,2.50
2018-06-12T08:58:36.297Z,3.07
2018-06-12T09:01:05.123Z,2.80
2018-06-12T09:03:33.979Z,2.87
2018-06-12T09:06:02.366Z,2.90
2018-06-12T09:08:31.166Z,2.30
2018-06-12T09:10:59.981Z,2.40
2018-06-12T09:13:28.757Z,2.97
2018-06-12T09:15:57.542Z,2.87
2018-06-12T09:18:26.324Z,2.93
2018-06-12T09:20:55.099Z,2.80
2018-06-12T09:23:24.316Z,2.40
2018-06-12T09:25:52.684Z,2.83
2018-06-12T09:28:21.425Z,3.10
2018-06-12T09:30:49.823Z,2.90
2018-06-12T09:33:18.560Z,3.00
2018-06-12T09:35:47.375Z,2.53
2018-06-12T09:38:16.191Z,2.73
2018-06-12T09:40:44.999Z,3.00
2018-06-12T09:43:13.408Z,2.53
2018-06-12T09:45:42.623Z,2.80
2018-06-12T09:48:11.017Z,2.43
2018-06-12T09:50:39.767Z,2.30
2018-06-12T09:53:08.591Z,2.37
2018-06-12T09:55:36.980Z,2.20
2018-06-12T09:58:05.831Z,2.50
2018-06-12T10:00:39.814Z,2.73
2018-06-12T10:03:08.766Z,2.67
2018-06-12T10:05:37.556Z,2.97
2018-06-12T10:08:06.350Z,2.43
2018-06-12T10:10:34.746Z,3.37
2018-06-12T10:13:03.544Z,3.97
2018-06-12T10:15:32.363Z,3.30
2018-06-12T10:18:00.754Z,2.90
2018-06-12T10:20:29.174Z,3.37
2018-06-12T10:22:57.561Z,2.57
2018-06-12T10:25:26.394Z,3.03
2018-06-12T10:27:55.172Z,2.93
2018-06-12T10:30:24.011Z,2.80
2018-06-12T10:32:52.844Z,2.73
2018-06-12T10:35:21.698Z,2.70
2018-06-12T10:37:50.134Z,2.80
2018-06-12T10:40:18.893Z,2.70
2018-06-12T10:42:47.776Z,2.93
2018-06-12T10:45:16.588Z,3.13
2018-06-12T10:47:44.980Z,2.70
2018-06-12T10:50:13.786Z,2.80
2018-06-12T10:52:42.188Z,2.97
2018-06-12T10:55:10.641Z,2.43
2018-06-12T10:57:39.463Z,3.47
2018-06-12T11:00:08.517Z,2.40
2018-06-12T11:02:36.904Z,2.73
2018-06-12T11:05:05.746Z,2.87
2018-06-12T11:07:34.560Z,3.13
2018-06-12T11:10:03.452Z,3.33
2018-06-12T11:12:32.363Z,2.77
2018-06-12T11:15:01.206Z,2.93
2018-06-12T11:17:29.996Z,3.60
2018-06-12T11:19:58.827Z,3.40
2018-06-12T11:22:27.619Z,3.40
2018-06-12T11:24:56.436Z,3.60
2018-06-12T11:27:25.356Z,3.30
2018-06-12T11:29:54.122Z,3.60
2018-06-12T11:32:23.369Z,3.40
2018-06-12T11:34:52.196Z,3.23
2018-06-12T11:37:20.608Z,4.13
2018-06-12T11:39:49.046Z,4.17
2018-06-12T11:42:17.507Z,3.37
2018-06-12T11:44:46.363Z,3.43
2018-06-12T11:47:15.122Z,3.90
2018-06-12T11:49:43.961Z,3.20
2018-06-12T11:52:12.338Z,2.80
2018-06-12T11:54:42.746Z,3.67
2018-06-12T11:57:11.543Z,3.50
2018-06-12T11:59:40.385Z,3.70
2018-06-12T12:02:09.210Z,3.87
2018-06-12T12:04:37.696Z,4.10
2018-06-12T12:07:06.518Z,4.37
2018-06-12T12:09:35.350Z,4.20
2018-06-12T12:12:03.768Z,3.53
2018-06-12T12:14:32.588Z,3.70
2018-06-12T12:17:01.408Z,3.80
2018-06-12T12:19:30.228Z,3.40
2018-06-12T12:21:58.628Z,3.47
2018-06-12T12:24:27.040Z,3.43
2018-06-12T12:26:55.831Z,3.67
2018-06-12T12:29:24.208Z,3.23
2018-06-12T12:31:52.628Z,3.50
2018-06-12T12:34:21.450Z,3.53
2018-06-12T12:36:49.846Z,3.27
2018-06-12T12:39:18.641Z,3.50
2018-06-12T12:41:47.818Z,3.13
2018-06-12T12:44:16.632Z,3.70
2018-06-12T12:46:45.419Z,3.43
2018-06-12T12:49:14.239Z,3.20
2018-06-12T12:51:43.009Z,3.13
2018-06-12T12:54:11.976Z,3.37
2018-06-12T12:56:40.394Z,3.63
2018-06-12T13:01:37.146Z,3.40
2018-06-12T13:04:06.043Z,3.77
2018-06-12T13:06:34.887Z,3.50
2018-06-12T13:09:05.077Z,3.70
2018-06-12T13:11:33.450Z,3.00
2018-06-12T13:14:02.028Z,3.47
2018-06-12T13:16:30.414Z,3.53
2018-06-12T13:18:58.783Z,4.03
2018-06-12T13:21:27.531Z,3.60
2018-06-12T13:23:56.309Z,3.33
2018-06-12T13:26:25.088Z,3.40
2018-06-12T13:28:53.496Z,3.50
2018-06-12T13:31:22.308Z,3.40
2018-06-12T13:33:51.160Z,3.80
2018-06-12T13:36:19.559Z,2.80
2018-06-12T13:38:48.336Z,3.33
2018-06-12T13:41:17.157Z,3.30
2018-06-12T13:43:45.541Z,3.43
2018-06-12T13:46:13.970Z,4.00
2018-06-12T13:48:42.358Z,3.40
2018-06-12T13:51:11.167Z,3.43
2018-06-12T13:53:39.978Z,3.30
2018-06-12T13:56:08.947Z,3.63
2018-06-12T13:58:37.332Z,3.50
2018-06-12T14:01:06.197Z,3.13
2018-06-12T14:03:34.582Z,3.23
2018-06-12T14:06:03.440Z,3.20
2018-06-12T14:08:32.266Z,3.20
2018-06-12T14:11:00.655Z,3.10
2018-06-12T14:13:29.517Z,2.90
2018-06-12T14:15:58.260Z,2.53
2018-06-12T14:18:27.075Z,2.83
2018-06-12T14:20:55.900Z,2.90
2018-06-12T14:23:24.709Z,2.87
2018-06-12T14:25:53.531Z,2.63
2018-06-12T14:28:22.256Z,2.50
2018-06-12T14:30:51.155Z,3.23
2018-06-12T14:33:19.953Z,2.60
2018-06-12T14:35:48.742Z,2.57
2018-06-12T14:38:17.273Z,2.90
2018-06-12T14:40:46.102Z,2.30
2018-06-12T14:43:14.523Z,3.33
2018-06-12T14:45:43.317Z,2.80
2018-06-12T14:48:12.243Z,3.07
2018-06-12T14:50:40.625Z,2.73
2018-06-12T14:53:09.367Z,3.00
2018-06-12T14:55:38.265Z,3.20
2018-06-12T14:58:06.707Z,3.17
2018-06-12T15:00:35.146Z,3.40
2018-06-12T15:03:03.935Z,3.13
2018-06-12T15:05:32.748Z,3.30
2018-06-12T15:08:01.545Z,3.40
2018-06-12T15:10:29.960Z,3.00
2018-06-12T15:12:58.784Z,3.00
2018-06-12T15:15:27.631Z,2.90
2018-06-12T15:17:56.413Z,2.90
2018-06-12T15:20:24.787Z,2.90
2018-06-12T15:22:53.644Z,2.97
2018-06-12T15:25:22.495Z,2.80
2018-06-12T15:27:51.342Z,2.80
2018-06-12T15:30:19.782Z,2.90
2018-06-12T15:32:48.596Z,2.90
2018-06-12T15:35:17.397Z,2.73
2018-06-12T15:37:45.813Z,3.00
2018-06-12T15:40:14.182Z,3.70
2018-06-12T15:42:42.989Z,3.63
2018-06-12T15:45:11.775Z,2.90
2018-06-12T15:47:40.152Z,3.20
2018-06-12T15:50:08.574Z,3.37
2018-06-12T15:52:37.396Z,3.00
2018-06-12T15:55:05.827Z,3.53
2018-06-12T15:57:34.592Z,3.17
2018-06-12T16:00:03.813Z,3.13
2018-06-12T16:02:32.595Z,3.80
2018-06-12T16:05:01.327Z,2.80
2018-06-12T16:07:29.779Z,3.20
2018-06-12T16:09:58.614Z,3.23
2018-06-12T16:12:27.490Z,3.60
2018-06-12T16:14:55.918Z,2.83
2018-06-12T16:17:24.334Z,3.70
2018-06-12T16:19:53.284Z,3.40
2018-06-12T16:22:21.678Z,3.40
2018-06-12T16:24:50.068Z,4.10
2018-06-12T16:27:18.907Z,3.67
2018-06-12T16:29:47.344Z,3.93
2018-06-12T16:32:16.133Z,4.10
2018-06-12T16:34:44.955Z,4.30
2018-06-12T16:37:13.340Z,3.83
2018-06-12T16:39:41.757Z,3.40
2018-06-12T16:42:10.977Z,3.40
2018-06-12T16:44:39.358Z,4.30
2018-06-12T16:47:07.749Z,4.27
2018-06-12T16:49:36.533Z,3.97
2018-06-12T16:52:05.041Z,4.47
2018-06-12T16:54:33.924Z,4.50
2018-06-12T16:57:02.721Z,3.47
2018-06-12T16:59:31.108Z,4.17
2018-06-12T17:01:59.944Z,3.67
2018-06-12T17:04:28.402Z,4.03
2018-06-12T17:06:57.240Z,3.97
2018-06-12T17:09:26.116Z,4.30
2018-06-12T17:11:54.492Z,3.67
2018-06-12T17:14:23.316Z,4.07
2018-06-12T17:16:52.112Z,4.20
2018-06-12T17:19:20.579Z,4.07
2018-06-12T17:21:49.010Z,3.43
2018-06-12T17:24:17.401Z,4.13
2018-06-12T17:26:46.759Z,3.80
2018-06-12T17:29:16.975Z,3.67
2018-06-12T17:31:46.184Z,3.40
2018-06-12T17:34:16.507Z,3.83
2018-06-12T17:36:46.155Z,3.10
2018-06-12T17:39:15.809Z,3.63
2018-06-12T17:41:45.410Z,3.23
2018-06-12T17:44:15.113Z,3.30
2018-06-12T17:46:44.781Z,3.33
2018-06-12T17:49:13.229Z,3.50
2018-06-12T17:51:41.658Z,3.77
2018-06-12T17:54:10.100Z,3.77
2018-06-12T17:56:38.622Z,3.63
2018-06-12T17:59:07.001Z,3.67
2018-06-12T18:01:35.389Z,3.30
2018-06-12T18:04:03.822Z,3.57
2018-06-12T18:06:32.638Z,3.50
2018-06-12T18:09:01.477Z,3.00
2018-06-12T18:11:30.247Z,3.43
2018-06-12T18:13:59.200Z,3.10
2018-06-12T18:16:28.171Z,3.23
2018-06-12T18:18:56.558Z,3.20
2018-06-12T18:21:25.491Z,3.97
2018-06-12T18:23:54.275Z,4.10
2018-06-12T18:26:22.785Z,3.43
2018-06-12T18:28:51.203Z,3.30
2018-06-12T18:31:19.564Z,2.97
2018-06-12T18:33:48.469Z,3.70
2018-06-12T18:36:16.902Z,3.70
2018-06-12T18:38:45.291Z,3.50
2018-06-12T18:41:13.769Z,3.70
2018-06-12T18:43:42.295Z,3.80
2018-06-12T18:46:11.240Z,3.60
2018-06-12T18:48:40.026Z,3.57
2018-06-12T18:51:09.203Z,3.53
2018-06-12T18:53:38.102Z,3.80
2018-06-12T18:56:06.594Z,3.50
2018-06-12T18:58:35.071Z,3.33
2018-06-12T19:01:03.592Z,3.60
2018-06-12T19:03:32.514Z,4.00
2018-06-12T19:06:01.682Z,3.30
2018-06-12T19:08:30.251Z,3.40
2018-06-12T19:10:58.834Z,3.07
2018-06-12T19:13:27.403Z,3.40
2018-06-12T19:15:55.879Z,3.10
2018-06-12T19:18:24.824Z,3.63
2018-06-12T19:20:53.813Z,3.07
2018-06-12T19:23:22.519Z,2.53
2018-06-12T19:25:51.534Z,3.37
2018-06-12T19:28:20.527Z,3.13
2018-06-12T19:30:48.982Z,3.00
2018-06-12T19:33:17.523Z,3.03
2018-06-12T19:35:46.462Z,3.07
2018-06-12T19:38:15.637Z,2.60
2018-06-12T19:40:44.243Z,2.70
2018-06-12T19:43:13.864Z,2.77
2018-06-12T19:45:42.717Z,3.17
2018-06-12T19:48:12.304Z,3.03
2018-06-12T19:50:41.124Z,2.77
2018-06-12T19:53:11.642Z,2.80
2018-06-12T19:55:40.208Z,3.03
2018-06-12T19:58:09.571Z,2.80
2018-06-12T20:00:38.406Z,2.80
2018-06-12T20:03:07.009Z,2.77
2018-06-12T20:05:35.414Z,2.77
2018-06-12T20:08:04.355Z,2.67
2018-06-12T20:10:35.850Z,2.53
2018-06-12T20:13:04.359Z,2.13
2018-06-12T20:15:33.049Z,2.60
2018-06-12T20:18:01.522Z,2.60
2018-06-12T20:20:29.974Z,2.10
2018-06-12T20:22:58.388Z,2.27
2018-06-12T20:25:28.837Z,2.20
2018-06-12T20:27:57.278Z,2.40
2018-06-12T20:30:26.142Z,2.30
2018-06-12T20:32:54.964Z,2.40
2018-06-12T20:35:23.971Z,2.20
2018-06-12T20:37:52.790Z,2.60
2018-06-12T20:40:21.672Z,2.40
2018-06-12T20:42:50.316Z,2.50
2018-06-12T20:45:18.780Z,2.40
2018-06-12T20:47:47.351Z,2.43
2018-06-12T20:50:15.850Z,2.57
2018-06-12T20:52:44.810Z,2.40
2018-06-12T20:55:13.927Z,2.27
2018-06-12T20:57:42.402Z,2.23
2018-06-12T21:00:11.260Z,2.50
2018-06-12T21:02:39.929Z,2.73
2018-06-12T21:05:09.174Z,2.40
2018-06-12T21:07:38.119Z,2.73
2018-06-12T21:10:06.663Z,3.27
2018-06-12T21:12:35.992Z,3.20
2018-06-12T21:15:04.808Z,3.00
2018-06-12T21:17:33.587Z,2.93
2018-06-12T21:20:02.029Z,3.50
2018-06-12T21:22:31.377Z,3.53
2018-06-12T21:24:59.788Z,3.00
2018-06-12T21:27:28.510Z,3.10
2018-06-12T21:29:57.834Z,3.10
2018-06-12T21:32:26.214Z,3.70
2018-06-12T21:34:54.645Z,3.20
2018-06-12T21:37:23.127Z,2.90
2018-06-12T21:39:51.658Z,3.17
2018-06-12T21:42:21.149Z,3.37
2018-06-12T21:44:49.549Z,3.20
2018-06-12T21:47:18.330Z,3.10
2018-06-12T21:49:46.798Z,3.10
2018-06-12T21:52:15.577Z,2.97
2018-06-12T21:54:43.992Z,3.20
2018-06-12T21:57:12.389Z,3.00
2018-06-12T21:59:40.812Z,2.93
2018-06-12T22:02:09.629Z,3.50
2018-06-12T22:04:38.012Z,3.60
2018-06-12T22:07:06.801Z,3.37
2018-06-12T22:09:35.590Z,3.20
2018-06-12T22:12:04.556Z,2.70
2018-06-12T22:14:32.993Z,3.27
2018-06-12T22:17:01.774Z,3.37
2018-06-12T22:19:30.172Z,3.57
2018-06-12T22:21:58.563Z,3.50
2018-06-12T22:24:27.074Z,3.13
2018-06-12T22:26:55.995Z,3.30
2018-06-12T22:29:24.374Z,3.57
2018-06-12T22:31:53.213Z,2.80
2018-06-12T22:34:21.998Z,3.40
2018-06-12T22:36:50.807Z,2.90
2018-06-12T22:39:19.175Z,2.80
2018-06-12T22:41:47.960Z,2.80
2018-06-12T22:44:16.743Z,2.53
2018-06-12T22:46:45.610Z,3.20
2018-06-12T22:49:13.956Z,2.77
2018-06-12T22:51:42.769Z,2.33
2018-06-12T22:54:11.579Z,2.80
2018-06-12T22:56:40.375Z,2.57
2018-06-12T22:59:09.177Z,2.80
2018-06-12T23:01:37.976Z,3.17
2018-06-12T23:04:06.353Z,2.80
2018-06-12T23:06:34.768Z,3.20
2018-06-12T23:09:03.311Z,3.13
2018-06-12T23:11:31.740Z,3.30
2018-06-12T23:14:00.174Z,3.80
2018-06-12T23:16:28.539Z,3.77
2018-06-12T23:18:56.994Z,3.27
2018-06-12T23:21:48.503Z,3.27
2018-06-12T23:24:16.919Z,3.77
2018-06-12T23:26:45.297Z,3.50
2018-06-12T23:29:13.747Z,3.13
2018-06-12T23:31:42.121Z,3.23
2018-06-12T23:34:10.558Z,3.00
2018-06-12T23:36:39.356Z,2.40
2018-06-12T23:39:09.049Z,2.80
2018-06-12T23:41:37.856Z,2.57
2018-06-12T23:44:06.717Z,2.43
2018-06-12T23:46:35.090Z,2.37
2018-06-12T23:49:03.944Z,2.10
2018-06-12T23:51:32.752Z,2.27
2018-06-12T23:54:01.123Z,2.20
2018-06-12T23:56:29.529Z,2.10
2018-06-12T23:58:58.317Z,2.30
